PWSweather.com
Personal Weather Stations
Station Observations
SANDHURSTWX
SandhurstGB

SandhurstGB

Lat: 51.3522, Lon: -0.7739

Elevation: 272.3

Station Type: Davis VP2

www.sandhurstweather.org.uk

High Low Average
Temperature 65.2°F18.4°C 47.5°F8.6°C 56.7°F13.7°C
Dew Point 50.0°F10.0°C 43.2°F6.2°C 46.9°F8.3°C
Winds 12.7 mph 20.4 kmh Calm Calm 5.0 mph NW8.0 kmh NW
Wind Gusts 19.6 mph31.5 kmh -- 8.0 mph12.9 kmh
Humidity 88% 46% 71%
Pressure 30.34 in1027.4 mb 30.09 in1019.0 mb -
Precipitation 0.00 in0.0 mm - -
Hour Temp Dew Point Humidity Winds Wind Gusts Pressure Precip Precip Rate Daily Precip Total
12:00 AM 55.6°F13.1°C 48.8°F9.3°C 78% 6.9 mph NW11.1 kmh NW 11.5 mph18.5 kmh 30.09 in1019.0 mb - 0.00 in0.0 mm 0.00 in0.0 mm
01:00 AM 54.9°F12.7°C 48.8°F9.3°C 80% 5.8 mph NW9.3 kmh NW 11.5 mph18.5 kmh 30.11 in1019.6 mb - 0.00 in0.0 mm 0.00 in0.0 mm
02:00 AM 54.5°F12.5°C 47.8°F8.8°C 78% 3.5 mph NW5.6 kmh NW 4.6 mph7.4 kmh 30.13 in1020.3 mb - 0.00 in0.0 mm 0.00 in0.0 mm
03:00 AM 54.3°F12.4°C 47.6°F8.7°C 78% 11.5 mph NW18.5 kmh NW 13.8 mph22.2 kmh 30.15 in1021.0 mb - 0.00 in0.0 mm 0.00 in0.0 mm
04:00 AM 54.0°F12.2°C 47.6°F8.7°C 79% 5.8 mph NW9.3 kmh NW 11.5 mph18.5 kmh 30.17 in1021.7 mb - 0.00 in0.0 mm 0.00 in0.0 mm
05:00 AM 53.6°F12.0°C 48.5°F9.2°C 83% 5.8 mph NW9.3 kmh NW 8.1 mph13.0 kmh 30.20 in1022.7 mb - 0.00 in0.0 mm 0.00 in0.0 mm
06:00 AM 53.1°F11.7°C 48.0°F8.9°C 83% 8.1 mph NW13.0 kmh NW 6.9 mph11.1 kmh 30.23 in1023.7 mb - 0.00 in0.0 mm 0.00 in0.0 mm
07:00 AM 52.8°F11.6°C 49.3°F9.6°C 88% 3.5 mph NNW5.6 kmh NNW 8.1 mph13.0 kmh 30.25 in1024.4 mb - 0.00 in0.0 mm 0.00 in0.0 mm
08:00 AM 53.8°F12.1°C 50.0°F10.0°C 87% 2.3 mph NW3.7 kmh NW 5.8 mph9.3 kmh 30.27 in1025.1 mb - 0.00 in0.0 mm 0.00 in0.0 mm
09:00 AM 56.4°F13.6°C 47.1°F8.4°C 71% 10.4 mph NW16.7 kmh NW 15.0 mph24.1 kmh 30.29 in1025.7 mb - 0.00 in0.0 mm 0.00 in0.0 mm
10:00 AM 60.3°F15.7°C 46.4°F8.0°C 60% 8.1 mph NW13.0 kmh NW 15.0 mph24.1 kmh 30.30 in1026.1 mb - 0.00 in0.0 mm 0.00 in0.0 mm
11:00 AM 62.1°F16.7°C 44.2°F6.8°C 52% 6.9 mph NW11.1 kmh NW 15.0 mph24.1 kmh 30.31 in1026.4 mb - 0.00 in0.0 mm 0.00 in0.0 mm
12:00 PM 64.4°F18.0°C 43.2°F6.2°C 46% 12.7 mph NW20.4 kmh NW 12.7 mph20.4 kmh 30.31 in1026.4 mb - 0.00 in0.0 mm 0.00 in0.0 mm
01:00 PM 65.2°F18.4°C 43.9°F6.6°C 46% 9.2 mph NW14.8 kmh NW 19.6 mph31.5 kmh 30.31 in1026.4 mb - 0.00 in0.0 mm 0.00 in0.0 mm
02:00 PM 61.8°F16.6°C 46.8°F8.2°C 58% 8.1 mph NW13.0 kmh NW 11.5 mph18.5 kmh 30.32 in1026.8 mb - 0.00 in0.0 mm 0.00 in0.0 mm
03:00 PM 63.5°F17.5°C 48.0°F8.9°C 57% 9.2 mph NW14.8 kmh NW 15.0 mph24.1 kmh 30.33 in1027.1 mb - 0.00 in0.0 mm 0.00 in0.0 mm
04:00 PM 62.7°F17.1°C 47.7°F8.7°C 58% 5.8 mph NW9.3 kmh NW 6.9 mph11.1 kmh 30.33 in1027.1 mb - 0.00 in0.0 mm 0.00 in0.0 mm
05:00 PM 61.9°F16.6°C 47.4°F8.6°C 59% 4.6 mph WNW7.4 kmh WNW 5.8 mph9.3 kmh 30.33 in1027.1 mb - 0.00 in0.0 mm 0.00 in0.0 mm
06:00 PM 60.2°F15.7°C 47.2°F8.4°C 62% 1.2 mph NW1.9 kmh NW 2.3 mph3.7 kmh 30.33 in1027.1 mb - 0.00 in0.0 mm 0.00 in0.0 mm
07:00 PM 56.7°F13.7°C 47.8°F8.8°C 72% Calm Calm -- 30.34 in1027.4 mb - 0.00 in0.0 mm 0.00 in0.0 mm
08:00 PM 53.0°F11.7°C 46.4°F8.0°C 78% Calm Calm -- 30.34 in1027.4 mb - 0.00 in0.0 mm 0.00 in0.0 mm
09:00 PM 50.5°F10.3°C 45.5°F7.5°C 83% Calm Calm -- 30.34 in1027.4 mb - 0.00 in0.0 mm 0.00 in0.0 mm
10:00 PM 48.7°F9.3°C 44.7°F7.1°C 86% Calm Calm -- 30.34 in1027.4 mb - 0.00 in0.0 mm 0.00 in0.0 mm
11:00 PM 47.5°F8.6°C 43.8°F6.6°C 87% Calm Calm -- 30.33 in1027.1 mb - 0.00 in0.0 mm 0.00 in0.0 mm